createdAt,value
2018-09-23T00:00:55.042Z,15.30
2018-09-23T00:03:21.779Z,15.30
2018-09-23T00:05:48.722Z,15.30
2018-09-23T00:08:15.391Z,14.90
2018-09-23T00:10:42.419Z,15.30
2018-09-23T00:13:09.756Z,15.30
2018-09-23T00:15:36.459Z,15.30
2018-09-23T00:18:03.802Z,15.30
2018-09-23T00:20:30.504Z,15.30
2018-09-23T00:22:57.200Z,15.30
2018-09-23T00:25:24.712Z,15.30
2018-09-23T00:27:51.653Z,15.30
2018-09-23T00:30:18.499Z,15.30
2018-09-23T00:32:45.678Z,15.30
2018-09-23T00:35:12.471Z,15.30
2018-09-23T00:37:39.244Z,15.30
2018-09-23T00:40:06.219Z,15.20
2018-09-23T00:42:34.143Z,15.20
2018-09-23T00:45:00.937Z,15.30
2018-09-23T00:47:27.608Z,15.20
2018-09-23T00:49:54.333Z,15.20
2018-09-23T00:52:21.242Z,15.20
2018-09-23T00:54:48.525Z,15.20
2018-09-23T00:57:15.290Z,15.20
2018-09-23T00:59:41.954Z,15.20
2018-09-23T01:02:09.268Z,15.20
2018-09-23T01:04:35.973Z,15.20
2018-09-23T01:07:03.256Z,15.20
2018-09-23T01:09:29.960Z,15.20
2018-09-23T01:11:56.633Z,15.20
2018-09-23T01:14:23.292Z,15.20
2018-09-23T01:16:49.930Z,15.20
2018-09-23T01:19:16.742Z,15.20
2018-09-23T01:21:43.436Z,15.20
2018-09-23T01:24:10.232Z,15.20
2018-09-23T01:26:36.973Z,15.20
2018-09-23T01:29:03.837Z,15.20
2018-09-23T01:31:30.529Z,15.20
2018-09-23T01:33:57.234Z,15.20
2018-09-23T01:36:24.502Z,15.20
2018-09-23T01:38:51.887Z,15.20
2018-09-23T01:41:18.684Z,15.20
2018-09-23T01:43:45.574Z,15.20
2018-09-23T01:46:12.270Z,15.20
2018-09-23T01:48:39.506Z,15.20
2018-09-23T01:51:06.586Z,15.20
2018-09-23T01:53:33.311Z,15.20
2018-09-23T01:56:00.201Z,15.20
2018-09-23T01:58:27.836Z,15.20
2018-09-23T02:00:54.594Z,14.80
2018-09-23T02:03:21.454Z,15.20
2018-09-23T02:05:48.297Z,15.20
2018-09-23T02:08:15.092Z,15.20
2018-09-23T02:10:42.812Z,15.20
2018-09-23T02:13:10.265Z,15.20
2018-09-23T02:15:37.107Z,15.20
2018-09-23T02:18:04.301Z,15.20
2018-09-23T02:20:31.307Z,15.20
2018-09-23T02:22:58.025Z,15.20
2018-09-23T02:25:24.851Z,14.80
2018-09-23T02:27:51.602Z,15.20
2018-09-23T02:30:18.839Z,15.20
2018-09-23T02:32:45.717Z,15.10
2018-09-23T02:35:12.471Z,15.10
2018-09-23T02:37:39.325Z,15.10
2018-09-23T02:40:06.095Z,15.10
2018-09-23T02:42:32.947Z,15.10
2018-09-23T02:44:59.899Z,15.10
2018-09-23T02:47:26.570Z,15.10
2018-09-23T02:49:53.876Z,15.10
2018-09-23T02:52:20.741Z,15.10
2018-09-23T02:54:47.899Z,15.10
2018-09-23T02:57:14.591Z,15.10
2018-09-23T02:59:41.256Z,15.10
2018-09-23T03:02:07.979Z,15.10
2018-09-23T03:04:34.912Z,15.10
2018-09-23T03:07:01.759Z,15.10
2018-09-23T03:09:28.569Z,15.10
2018-09-23T03:11:55.274Z,15.10
2018-09-23T03:14:22.516Z,15.10
2018-09-23T03:16:49.418Z,15.10
2018-09-23T03:19:16.153Z,15.10
2018-09-23T03:21:42.852Z,15.10
2018-09-23T03:24:09.505Z,15.10
2018-09-23T03:26:36.224Z,15.10
2018-09-23T03:29:03.057Z,15.10
2018-09-23T03:31:29.773Z,15.10
2018-09-23T03:33:56.606Z,15.10
2018-09-23T03:36:23.310Z,15.10
2018-09-23T03:38:50.146Z,15.10
2018-09-23T03:41:17.352Z,15.10
2018-09-23T03:43:44.231Z,15.10
2018-09-23T03:46:10.925Z,15.10
2018-09-23T03:48:37.672Z,15.10
2018-09-23T03:51:04.394Z,15.10
2018-09-23T03:53:31.096Z,15.10
2018-09-23T03:55:57.850Z,15.10
2018-09-23T03:58:24.750Z,15.10
2018-09-23T04:00:51.526Z,15.10
2018-09-23T04:03:18.563Z,15.10
2018-09-23T04:05:45.279Z,15.10
2018-09-23T04:08:12.189Z,15.10
2018-09-23T04:10:38.995Z,15.10
2018-09-23T04:13:05.690Z,15.10
2018-09-23T04:15:32.599Z,15.10
2018-09-23T04:17:59.430Z,15.10
2018-09-23T04:20:26.286Z,15.10
2018-09-23T04:22:52.958Z,15.10
2018-09-23T04:25:20.964Z,15.10
2018-09-23T04:27:48.311Z,15.10
2018-09-23T04:30:15.153Z,15.10
2018-09-23T04:32:42.006Z,15.10
2018-09-23T04:35:09.318Z,15.10
2018-09-23T04:37:36.106Z,15.10
2018-09-23T04:40:02.918Z,15.00
2018-09-23T04:42:29.631Z,15.00
2018-09-23T04:44:57.108Z,15.10
2018-09-23T04:47:23.774Z,15.00
2018-09-23T04:49:50.457Z,15.00
2018-09-23T04:52:17.153Z,15.00
2018-09-23T04:54:43.868Z,15.10
2018-09-23T04:57:10.749Z,15.10
2018-09-23T04:59:37.469Z,15.10
2018-09-23T05:02:04.178Z,15.00
2018-09-23T05:04:30.876Z,15.00
2018-09-23T05:06:57.749Z,15.00
2018-09-23T05:09:24.558Z,15.00
2018-09-23T05:11:52.140Z,15.00
2018-09-23T05:14:18.914Z,15.10
2018-09-23T05:16:45.701Z,14.80
2018-09-23T05:19:12.463Z,15.00
2018-09-23T05:21:39.359Z,15.00
2018-09-23T05:24:06.087Z,15.10
2018-09-23T05:26:32.792Z,15.00
2018-09-23T05:28:59.578Z,15.10
2018-09-23T05:31:27.120Z,15.00
2018-09-23T05:33:53.939Z,15.00
2018-09-23T05:36:20.773Z,15.00
2018-09-23T05:38:47.459Z,15.00
2018-09-23T05:41:14.165Z,15.00
2018-09-23T05:43:41.082Z,15.00
2018-09-23T05:46:07.916Z,15.00
2018-09-23T05:48:34.794Z,15.00
2018-09-23T05:51:01.477Z,15.00
2018-09-23T05:53:28.174Z,15.00
2018-09-23T05:55:55.074Z,15.00
2018-09-23T05:58:22.661Z,15.00
2018-09-23T06:00:51.583Z,15.00
2018-09-23T06:03:18.525Z,15.00
2018-09-23T06:05:45.264Z,15.00
2018-09-23T06:08:12.702Z,15.00
2018-09-23T06:10:40.026Z,15.00
2018-09-23T06:13:06.764Z,15.00
2018-09-23T06:15:33.596Z,14.80
2018-09-23T06:18:00.398Z,15.00
2018-09-23T06:20:27.192Z,15.00
2018-09-23T06:22:54.210Z,15.00
2018-09-23T06:25:21.832Z,15.00
2018-09-23T06:27:48.672Z,15.00
2018-09-23T06:30:15.516Z,15.00
2018-09-23T06:32:42.264Z,15.00
2018-09-23T06:35:09.274Z,15.00
2018-09-23T06:37:36.107Z,15.00
2018-09-23T06:40:02.920Z,15.00
2018-09-23T06:42:29.684Z,15.00
2018-09-23T06:44:56.615Z,15.00
2018-09-23T06:47:23.838Z,14.80
2018-09-23T06:49:50.732Z,15.00
2018-09-23T06:52:18.605Z,15.00
2018-09-23T06:54:45.756Z,15.10
2018-09-23T06:57:13.456Z,15.00
2018-09-23T06:59:40.290Z,15.00
2018-09-23T07:02:07.098Z,15.00
2018-09-23T07:04:33.848Z,15.10
2018-09-23T07:07:00.695Z,15.00
2018-09-23T07:09:27.489Z,15.10
2018-09-23T07:11:54.286Z,15.10
2018-09-23T07:14:21.088Z,15.10
2018-09-23T07:16:47.787Z,15.10
2018-09-23T07:19:14.494Z,15.10
2018-09-23T07:21:41.287Z,15.10
2018-09-23T07:24:08.147Z,15.10
2018-09-23T07:26:34.789Z,15.10
2018-09-23T07:29:01.559Z,15.10
2018-09-23T07:31:28.299Z,15.10
2018-09-23T07:33:55.077Z,15.10
2018-09-23T07:36:21.861Z,15.10
2018-09-23T07:38:48.602Z,15.10
2018-09-23T07:41:15.374Z,14.80
2018-09-23T07:43:42.137Z,15.10
2018-09-23T07:46:09.147Z,15.10
2018-09-23T07:48:35.993Z,15.10
2018-09-23T07:51:02.695Z,15.10
2018-09-23T07:53:29.432Z,15.10
2018-09-23T07:55:56.247Z,15.10
2018-09-23T07:58:23.030Z,15.10
2018-09-23T08:00:49.816Z,15.10
2018-09-23T08:03:16.624Z,15.10
2018-09-23T08:05:43.498Z,15.10
2018-09-23T08:08:10.399Z,15.10
2018-09-23T08:10:37.493Z,15.20
2018-09-23T08:13:04.580Z,15.20
2018-09-23T08:15:31.326Z,15.20
2018-09-23T08:17:58.134Z,15.20
2018-09-23T08:20:25.004Z,15.20
2018-09-23T08:22:51.841Z,15.20
2018-09-23T08:25:18.739Z,15.20
2018-09-23T08:27:45.448Z,15.20
2018-09-23T08:30:12.237Z,15.20
2018-09-23T08:32:38.973Z,15.20
2018-09-23T08:35:05.793Z,15.20
2018-09-23T08:37:32.798Z,15.20
2018-09-23T08:39:59.556Z,15.20
2018-09-23T08:42:26.288Z,15.20
2018-09-23T08:47:23.907Z,15.20
2018-09-23T08:49:50.628Z,15.20
2018-09-23T08:52:17.630Z,15.30
2018-09-23T08:54:44.357Z,15.30
2018-09-23T08:57:11.113Z,15.30
2018-09-23T08:59:38.295Z,15.30
2018-09-23T09:02:05.118Z,15.30
2018-09-23T09:04:31.857Z,15.30
2018-09-23T09:06:58.568Z,15.30
2018-09-23T09:09:25.370Z,15.30
2018-09-23T09:11:52.161Z,15.30
2018-09-23T09:14:18.969Z,15.30
2018-09-23T09:16:45.735Z,15.30
2018-09-23T09:19:12.510Z,15.30
2018-09-23T09:21:39.290Z,15.30
2018-09-23T09:24:06.092Z,15.30
2018-09-23T09:26:32.815Z,15.30
2018-09-23T09:28:59.608Z,15.30
2018-09-23T09:31:26.501Z,15.30
2018-09-23T09:33:53.230Z,15.30
2018-09-23T09:36:20.183Z,15.30
2018-09-23T09:38:47.064Z,15.30
2018-09-23T09:41:13.782Z,15.30
2018-09-23T09:43:40.652Z,15.40
2018-09-23T09:46:07.387Z,15.40
2018-09-23T09:48:34.253Z,15.40
2018-09-23T09:51:01.190Z,15.40
2018-09-23T09:53:28.074Z,15.40
2018-09-23T09:55:54.756Z,15.40
2018-09-23T09:58:21.480Z,15.40
2018-09-23T10:00:48.287Z,15.40
2018-09-23T10:03:15.058Z,15.40
2018-09-23T10:05:41.789Z,15.40
2018-09-23T10:08:08.546Z,15.10
2018-09-23T10:10:35.303Z,15.40
2018-09-23T10:13:02.141Z,15.40
2018-09-23T10:15:28.932Z,15.40
2018-09-23T10:17:55.712Z,15.40
2018-09-23T10:20:22.460Z,15.40
2018-09-23T10:22:49.389Z,15.40
2018-09-23T10:25:16.133Z,15.40
2018-09-23T10:27:42.871Z,15.40
2018-09-23T10:30:10.105Z,15.20
2018-09-23T10:32:36.889Z,15.40
2018-09-23T10:35:03.601Z,15.30
2018-09-23T10:37:30.383Z,15.30
2018-09-23T10:39:57.249Z,15.30
2018-09-23T10:42:24.689Z,15.30
2018-09-23T10:44:51.575Z,15.30
2018-09-23T10:47:18.317Z,15.30
2018-09-23T10:49:45.111Z,15.30
2018-09-23T10:52:11.906Z,15.30
2018-09-23T10:54:44.714Z,15.30
2018-09-23T10:57:11.492Z,15.30
2018-09-23T10:59:38.267Z,15.30
2018-09-23T11:02:05.138Z,15.30
2018-09-23T11:04:31.900Z,15.30
2018-09-23T11:06:58.676Z,15.30
2018-09-23T11:09:25.550Z,15.30
2018-09-23T11:11:52.358Z,15.30
2018-09-23T11:14:19.505Z,15.30
2018-09-23T11:16:46.273Z,15.30
2018-09-23T11:19:13.012Z,15.30
2018-09-23T11:21:39.846Z,15.30
2018-09-23T11:24:06.686Z,15.30
2018-09-23T11:26:33.669Z,15.30
2018-09-23T11:29:00.466Z,15.30
2018-09-23T11:31:27.166Z,15.30
2018-09-23T11:33:53.854Z,15.20
2018-09-23T11:36:20.661Z,15.20
2018-09-23T11:38:47.708Z,15.20
2018-09-23T11:41:14.551Z,15.20
2018-09-23T11:43:41.325Z,15.20
2018-09-23T11:46:08.161Z,15.20
2018-09-23T11:48:34.994Z,15.20
2018-09-23T11:51:01.758Z,15.20
2018-09-23T11:53:28.711Z,15.20
2018-09-23T11:55:55.587Z,15.20
2018-09-23T11:58:22.373Z,15.20
2018-09-23T12:00:49.127Z,15.20
2018-09-23T12:03:15.890Z,14.90
2018-09-23T12:05:42.611Z,15.20
2018-09-23T12:08:09.346Z,15.20
2018-09-23T12:10:36.055Z,15.20
2018-09-23T12:13:02.896Z,15.20
2018-09-23T12:15:29.839Z,15.20
2018-09-23T12:17:56.613Z,15.20
2018-09-23T12:20:23.491Z,15.20
2018-09-23T12:22:50.255Z,15.20
2018-09-23T12:25:17.027Z,15.20
2018-09-23T12:27:43.792Z,15.20
2018-09-23T12:30:10.748Z,15.20
2018-09-23T12:32:37.512Z,15.20
2018-09-23T12:35:04.232Z,15.20
2018-09-23T12:37:31.012Z,15.20
2018-09-23T12:39:57.863Z,15.20
2018-09-23T12:42:24.671Z,15.20
2018-09-23T12:44:51.399Z,15.20
2018-09-23T12:47:18.145Z,15.20
2018-09-23T12:49:44.973Z,15.20
2018-09-23T12:52:11.743Z,15.20
2018-09-23T12:54:38.615Z,15.20
2018-09-23T12:57:05.503Z,15.20
2018-09-23T12:59:32.328Z,15.20
2018-09-23T13:01:59.131Z,15.30
2018-09-23T13:04:25.870Z,15.30
2018-09-23T13:06:52.642Z,15.30
2018-09-23T13:09:19.397Z,15.30
2018-09-23T13:11:46.562Z,15.30
2018-09-23T13:14:13.371Z,15.30
2018-09-23T13:16:40.233Z,15.30
2018-09-23T13:19:07.114Z,15.30
2018-09-23T13:21:33.816Z,15.40
2018-09-23T13:24:00.581Z,15.40
2018-09-23T13:26:27.386Z,15.40
2018-09-23T13:28:54.396Z,15.40
2018-09-23T13:31:21.180Z,15.40
2018-09-23T13:33:47.981Z,15.40
2018-09-23T13:36:14.764Z,15.40
2018-09-23T13:38:41.596Z,15.40
2018-09-23T13:41:08.439Z,15.40
2018-09-23T13:43:35.179Z,15.40
2018-09-23T13:46:01.948Z,15.50
2018-09-23T13:48:28.681Z,15.50
2018-09-23T13:50:55.429Z,15.50
2018-09-23T13:53:22.225Z,15.50
2018-09-23T13:55:48.983Z,15.50
2018-09-23T13:58:15.752Z,15.50
2018-09-23T14:00:42.417Z,15.50
2018-09-23T14:03:09.273Z,15.50
2018-09-23T14:05:36.056Z,15.50
2018-09-23T14:08:02.795Z,15.50
2018-09-23T14:10:29.504Z,15.60
2018-09-23T14:12:56.200Z,15.60
2018-09-23T14:15:22.915Z,15.60
2018-09-23T14:17:49.710Z,15.60
2018-09-23T14:20:16.674Z,15.60
2018-09-23T14:22:43.381Z,15.60
2018-09-23T14:25:10.189Z,15.60
2018-09-23T14:27:36.915Z,15.60
2018-09-23T14:30:03.715Z,15.60
2018-09-23T14:32:30.737Z,15.60
2018-09-23T14:34:57.538Z,15.60
2018-09-23T14:37:24.287Z,15.60
2018-09-23T14:39:51.011Z,15.60
2018-09-23T14:42:17.793Z,15.60
2018-09-23T14:44:44.574Z,15.60
2018-09-23T14:47:11.366Z,15.60
2018-09-23T14:49:38.066Z,15.60
2018-09-23T14:52:04.815Z,15.60
2018-09-23T14:54:31.720Z,15.60
2018-09-23T14:56:58.429Z,15.60
2018-09-23T14:59:25.525Z,15.60
2018-09-23T15:01:52.341Z,15.60
2018-09-23T15:04:19.379Z,15.50
2018-09-23T15:06:46.223Z,15.50
2018-09-23T15:09:13.032Z,15.50
2018-09-23T15:11:39.863Z,15.50
2018-09-23T15:14:06.721Z,15.50
2018-09-23T15:16:33.391Z,15.50
2018-09-23T15:19:00.232Z,15.40
2018-09-23T15:21:27.224Z,15.50
2018-09-23T15:23:54.009Z,15.30
2018-09-23T15:26:20.754Z,15.40
2018-09-23T15:28:47.482Z,15.40
2018-09-23T15:31:14.367Z,15.40
2018-09-23T15:33:41.390Z,15.40
2018-09-23T15:36:08.172Z,15.40
2018-09-23T15:38:35.067Z,15.40
2018-09-23T15:41:01.851Z,15.30
2018-09-23T15:43:28.599Z,15.30
2018-09-23T15:45:55.342Z,15.30
2018-09-23T15:48:22.128Z,15.30
2018-09-23T15:50:48.919Z,15.30
2018-09-23T15:53:15.783Z,15.30
2018-09-23T15:55:42.600Z,15.20
2018-09-23T15:58:09.318Z,15.20
2018-09-23T16:00:36.049Z,15.20
2018-09-23T16:03:02.771Z,15.20
2018-09-23T16:05:29.679Z,15.20
2018-09-23T16:07:56.631Z,15.20
2018-09-23T16:10:23.381Z,15.20
2018-09-23T16:12:50.107Z,15.20
2018-09-23T16:15:16.853Z,15.00
2018-09-23T16:17:43.749Z,15.10
2018-09-23T16:20:10.685Z,15.10
2018-09-23T16:22:37.425Z,15.10
2018-09-23T16:25:04.106Z,15.10
2018-09-23T16:27:30.901Z,15.10
2018-09-23T16:29:57.688Z,15.10
2018-09-23T16:32:24.491Z,15.00
2018-09-23T16:34:51.214Z,15.00
2018-09-23T16:37:18.070Z,15.00
2018-09-23T16:39:44.827Z,15.00
2018-09-23T16:42:11.874Z,15.00
2018-09-23T16:44:38.671Z,15.00
2018-09-23T16:47:05.467Z,14.90
2018-09-23T16:49:32.139Z,15.00
2018-09-23T16:51:58.866Z,14.90
2018-09-23T16:54:25.871Z,14.90
2018-09-23T16:56:52.888Z,14.90
2018-09-23T16:59:19.684Z,14.90
2018-09-23T17:01:46.474Z,14.90
2018-09-23T17:04:13.346Z,14.90
2018-09-23T17:06:40.264Z,14.90
2018-09-23T17:09:06.972Z,14.90
2018-09-23T17:11:33.690Z,14.90
2018-09-23T17:14:00.422Z,14.90
2018-09-23T17:16:27.295Z,14.90
2018-09-23T17:18:54.300Z,14.80
2018-09-23T17:21:21.594Z,14.90
2018-09-23T17:23:48.508Z,14.80
2018-09-23T17:26:15.417Z,14.80
2018-09-23T17:28:42.329Z,14.80
2018-09-23T17:31:09.059Z,14.80
2018-09-23T17:33:35.995Z,14.80
2018-09-23T17:36:02.796Z,14.80
2018-09-23T17:38:29.498Z,14.80
2018-09-23T17:40:56.196Z,14.80
2018-09-23T17:43:23.087Z,14.80
2018-09-23T17:45:50.190Z,14.80
2018-09-23T17:48:16.983Z,14.80
2018-09-23T17:50:43.703Z,14.80
2018-09-23T17:53:10.466Z,14.80
2018-09-23T17:55:37.457Z,14.80
2018-09-23T17:58:04.326Z,14.80
2018-09-23T18:00:31.128Z,14.70
2018-09-23T18:02:57.940Z,14.70
2018-09-23T18:05:24.738Z,14.70
2018-09-23T18:07:51.551Z,14.70
2018-09-23T18:10:18.275Z,14.70
2018-09-23T18:12:45.435Z,14.70
2018-09-23T18:15:12.212Z,14.70
2018-09-23T18:17:39.265Z,14.70
2018-09-23T18:20:06.050Z,14.70
2018-09-23T18:22:32.991Z,14.70
2018-09-23T18:24:59.849Z,14.70
2018-09-23T18:27:26.637Z,14.60
2018-09-23T18:29:53.378Z,14.60
2018-09-23T18:32:20.155Z,14.60
2018-09-23T18:34:47.032Z,14.60
2018-09-23T18:37:13.853Z,14.60
2018-09-23T18:39:40.536Z,14.60
2018-09-23T18:42:07.657Z,14.60
2018-09-23T18:44:34.511Z,14.50
2018-09-23T18:47:01.238Z,14.50
2018-09-23T18:49:28.033Z,14.50
2018-09-23T18:51:54.760Z,14.50
2018-09-23T18:54:27.020Z,14.50
2018-09-23T18:56:53.821Z,14.50
2018-09-23T18:59:20.581Z,14.50
2018-09-23T19:01:47.397Z,14.50
2018-09-23T19:04:14.209Z,14.50
2018-09-23T19:06:40.988Z,14.50
2018-09-23T19:09:08.399Z,14.50
2018-09-23T19:11:35.331Z,14.40
2018-09-23T19:14:02.129Z,14.40
2018-09-23T19:16:31.095Z,14.40
2018-09-23T19:18:58.282Z,14.40
2018-09-23T19:21:25.774Z,14.40
2018-09-23T19:23:52.531Z,14.40
2018-09-23T19:26:19.294Z,14.40
2018-09-23T19:28:45.995Z,14.40
2018-09-23T19:31:12.843Z,14.40
2018-09-23T19:33:39.723Z,14.40
2018-09-23T19:36:06.738Z,14.40
2018-09-23T19:38:33.592Z,14.40
2018-09-23T19:41:00.296Z,14.30
2018-09-23T19:43:27.058Z,14.40
2018-09-23T19:45:54.112Z,14.30
2018-09-23T19:48:20.927Z,14.30
2018-09-23T19:50:47.704Z,14.30
2018-09-23T19:53:14.567Z,14.30
2018-09-23T19:55:41.561Z,14.30
2018-09-23T19:58:08.385Z,14.30
2018-09-23T20:00:35.131Z,14.30
2018-09-23T20:03:01.908Z,14.30
2018-09-23T20:05:28.654Z,14.30
2018-09-23T20:07:55.382Z,14.30
2018-09-23T20:10:22.187Z,14.30
2018-09-23T20:12:49.261Z,14.30
2018-09-23T20:15:17.350Z,14.30
2018-09-23T20:17:44.557Z,14.30
2018-09-23T20:20:11.414Z,14.20
2018-09-23T20:22:38.280Z,14.30
2018-09-23T20:25:05.024Z,14.20
2018-09-23T20:27:31.794Z,14.30
2018-09-23T20:29:58.705Z,14.20
2018-09-23T20:32:25.477Z,14.20
2018-09-23T20:34:52.396Z,14.20
2018-09-23T20:37:19.344Z,14.20
2018-09-23T20:39:46.291Z,14.20
2018-09-23T20:42:13.225Z,14.20
2018-09-23T20:44:40.246Z,14.20
2018-09-23T20:47:07.949Z,14.20
2018-09-23T20:49:34.968Z,14.20
2018-09-23T20:52:01.701Z,14.20
2018-09-23T20:54:28.407Z,14.10
2018-09-23T20:56:55.142Z,14.10
2018-09-23T20:59:22.564Z,14.20
2018-09-23T21:01:49.450Z,14.20
2018-09-23T21:04:16.219Z,14.20
2018-09-23T21:06:43.073Z,14.10
2018-09-23T21:09:10.377Z,14.10
2018-09-23T21:11:37.231Z,14.10
2018-09-23T21:14:04.115Z,14.10
2018-09-23T21:16:30.835Z,14.10
2018-09-23T21:18:57.568Z,14.10
2018-09-23T21:21:24.487Z,14.10
2018-09-23T21:23:52.215Z,14.10
2018-09-23T21:26:19.171Z,14.10
2018-09-23T21:28:45.983Z,14.10
2018-09-23T21:31:12.836Z,14.10
2018-09-23T21:33:40.625Z,14.10
2018-09-23T21:36:08.011Z,13.80
2018-09-23T21:38:34.767Z,14.10
2018-09-23T21:41:01.581Z,14.10
2018-09-23T21:43:28.319Z,14.10
2018-09-23T21:45:55.060Z,14.10
2018-09-23T21:48:21.811Z,14.00
2018-09-23T21:50:48.653Z,14.00
2018-09-23T21:53:15.340Z,13.90
2018-09-23T21:55:42.049Z,14.00
2018-09-23T21:58:08.768Z,14.00
2018-09-23T22:00:41.669Z,14.00
2018-09-23T22:03:08.448Z,14.00
2018-09-23T22:05:35.261Z,14.00
2018-09-23T22:08:01.935Z,14.00
2018-09-23T22:10:29.595Z,14.00
2018-09-23T22:12:56.312Z,14.00
2018-09-23T22:15:24.810Z,14.00
2018-09-23T22:17:51.573Z,14.00
2018-09-23T22:20:18.498Z,14.00
2018-09-23T22:22:47.315Z,14.00
2018-09-23T22:25:14.100Z,14.00
2018-09-23T22:27:41.009Z,13.90
2018-09-23T22:30:07.954Z,13.90
2018-09-23T22:32:34.688Z,14.00
2018-09-23T22:35:01.886Z,13.90
2018-09-23T22:37:28.564Z,13.90
2018-09-23T22:39:55.378Z,13.90
2018-09-23T22:42:22.330Z,13.90
2018-09-23T22:44:49.269Z,13.90
2018-09-23T22:47:16.044Z,13.90
2018-09-23T22:49:43.068Z,13.90
2018-09-23T22:52:10.928Z,13.90
2018-09-23T22:54:37.690Z,13.80
2018-09-23T22:57:04.368Z,13.80
2018-09-23T22:59:31.096Z,13.90
2018-09-23T23:01:57.800Z,13.80
2018-09-23T23:04:24.664Z,13.80
2018-09-23T23:06:51.530Z,13.80
2018-09-23T23:09:18.439Z,13.80
2018-09-23T23:11:45.215Z,13.80
2018-09-23T23:14:12.017Z,13.80
2018-09-23T23:16:38.953Z,13.80
2018-09-23T23:19:05.670Z,13.80
2018-09-23T23:21:32.358Z,13.80
2018-09-23T23:23:59.057Z,13.70
2018-09-23T23:26:26.010Z,13.70
2018-09-23T23:28:52.800Z,13.70
2018-09-23T23:31:20.291Z,13.70
2018-09-23T23:33:47.081Z,13.70
2018-09-23T23:36:13.819Z,13.70
2018-09-23T23:38:40.661Z,13.70
2018-09-23T23:41:07.494Z,13.60
2018-09-23T23:43:34.481Z,13.60
2018-09-23T23:46:01.895Z,13.60
2018-09-23T23:48:28.609Z,13.60
2018-09-23T23:50:55.323Z,13.60
2018-09-23T23:53:22.027Z,13.60
2018-09-23T23:55:48.728Z,13.10
2018-09-23T23:58:16.009Z,13.60
